Temryuk, Russia
Current Conditions -  °F | °C
As of 9:00 AM on Sunday 23 Nov 2014 (Local Time) from URKA Reporting Station
Clear Clear  
Wind Chill: 13°   Ceiling: Unl
Heat Index: 25°   Visibility: 6mi
Dew Point: 19°   Wind: 13mph
Humidity: 80%   Direction: 60°ENE
Pressure: 30.24"   Gusts: 20mph
Location:  45.27°N, 37.38°E
Report Text: URKA 230600Z 06006G09MPS CAVOK M04/M07 Q1024 NOSIG RMKQFE764/1019 SC070
Loading
Personal Weather Stations






























Interactive Weather Map New forecast layout! Learn more

10-Day Weather Forecast

Advertisements
Track Severe Weather on mobile